sensor_id;sensor_type;location;lat;lon;timestamp;pressure;altitude;pressure_sealevel;temperature;humidity
63582;BME280;49727;51.078;17.066;2022-12-11T00:05:48;99304.88;;;0.21;74.03
63582;BME280;49727;51.078;17.066;2022-12-11T00:20:49;99309.09;;;0.12;74.43
63582;BME280;49727;51.078;17.066;2022-12-11T00:35:49;99309.66;;;0.16;74.47
63582;BME280;49727;51.078;17.066;2022-12-11T00:50:49;99316.81;;;0.14;74.51
63582;BME280;49727;51.078;17.066;2022-12-11T01:05:52;99300.59;;;0.20;74.65
63582;BME280;49727;51.078;17.066;2022-12-11T01:20:53;99321.94;;;0.15;74.51
63582;BME280;49727;51.078;17.066;2022-12-11T01:35:53;99321.34;;;0.12;74.53
63582;BME280;49727;51.078;17.066;2022-12-11T01:50:57;99316.56;;;0.17;74.78
63582;BME280;49727;51.078;17.066;2022-12-11T02:06:00;99290.75;;;0.12;74.57
63582;BME280;49727;51.078;17.066;2022-12-11T02:21:15;99264.81;;;0.09;74.57
63582;BME280;49727;51.078;17.066;2022-12-11T02:36:21;99271.38;;;0.04;74.69
63582;BME280;49727;51.078;17.066;2022-12-11T02:51:30;99272.84;;;-0.04;74.16
63582;BME280;49727;51.078;17.066;2022-12-11T03:06:40;99281.03;;;-0.08;74.51
63582;BME280;49727;51.078;17.066;2022-12-11T03:21:52;99288.09;;;-0.09;74.33
63582;BME280;49727;51.078;17.066;2022-12-11T03:36:54;99287.75;;;-0.15;74.40
63582;BME280;49727;51.078;17.066;2022-12-11T03:51:58;99278.59;;;-0.21;74.67
63582;BME280;49727;51.078;17.066;2022-12-11T04:07:00;99257.91;;;-0.24;74.65
63582;BME280;49727;51.078;17.066;2022-12-11T04:22:00;99257.44;;;-0.29;74.50
63582;BME280;49727;51.078;17.066;2022-12-11T04:37:19;99247.22;;;-0.32;74.41
63582;BME280;49727;51.078;17.066;2022-12-11T04:52:20;99239.31;;;-0.42;74.52
63582;BME280;49727;51.078;17.066;2022-12-11T05:07:20;99234.66;;;-0.50;74.46
63582;BME280;49727;51.078;17.066;2022-12-11T05:22:21;99229.69;;;-0.53;74.54
63582;BME280;49727;51.078;17.066;2022-12-11T05:37:21;99225.41;;;-0.54;74.46
63582;BME280;49727;51.078;17.066;2022-12-11T05:52:22;99220.91;;;-0.63;74.40
63582;BME280;49727;51.078;17.066;2022-12-11T06:07:22;99228.28;;;-0.69;74.24
63582;BME280;49727;51.078;17.066;2022-12-11T06:22:23;99242.91;;;-0.66;73.98
63582;BME280;49727;51.078;17.066;2022-12-11T06:37:23;99271.09;;;-0.70;74.03
63582;BME280;49727;51.078;17.066;2022-12-11T06:52:24;99260.72;;;-0.71;73.68
63582;BME280;49727;51.078;17.066;2022-12-11T07:07:26;99277.03;;;-0.68;73.81
63582;BME280;49727;51.078;17.066;2022-12-11T07:22:27;99270.38;;;-0.72;73.41
63582;BME280;49727;51.078;17.066;2022-12-11T07:37:28;99280.13;;;-0.74;73.34
63582;BME280;49727;51.078;17.066;2022-12-11T07:52:28;99273.72;;;-0.70;73.27
63582;BME280;49727;51.078;17.066;2022-12-11T08:07:29;99283.94;;;-0.78;72.89
63582;BME280;49727;51.078;17.066;2022-12-11T08:22:30;99280.13;;;-0.74;72.83
63582;BME280;49727;51.078;17.066;2022-12-11T08:37:32;99280.84;;;-0.72;72.76
63582;BME280;49727;51.078;17.066;2022-12-11T08:52:34;99271.44;;;-0.74;72.02
63582;BME280;49727;51.078;17.066;2022-12-11T09:07:35;99283.09;;;-0.78;72.13
63582;BME280;49727;51.078;17.066;2022-12-11T09:22:35;99264.22;;;-0.82;71.58
63582;BME280;49727;51.078;17.066;2022-12-11T09:37:36;99247.78;;;-0.61;71.96
63582;BME280;49727;51.078;17.066;2022-12-11T10:07:55;99226.63;;;-0.70;70.73
63582;BME280;49727;51.078;17.066;2022-12-11T10:23:00;99199.88;;;-0.73;70.18
63582;BME280;49727;51.078;17.066;2022-12-11T10:38:13;99193.13;;;-0.87;70.06
63582;BME280;49727;51.078;17.066;2022-12-11T10:53:23;99179.13;;;-0.86;69.68
63582;BME280;49727;51.078;17.066;2022-12-11T11:08:26;99174.19;;;-0.79;69.37
63582;BME280;49727;51.078;17.066;2022-12-11T11:23:27;99149.03;;;-0.92;68.68
63582;BME280;49727;51.078;17.066;2022-12-11T11:38:37;99142.88;;;-1.02;68.94
63582;BME280;49727;51.078;17.066;2022-12-11T11:53:40;99131.25;;;-0.98;68.70
63582;BME280;49727;51.078;17.066;2022-12-11T12:09:09;99132.78;;;-1.07;68.47
63582;BME280;49727;51.078;17.066;2022-12-11T12:39:49;99118.88;;;-1.07;68.48
63582;BME280;49727;51.078;17.066;2022-12-11T12:54:55;99124.63;;;-1.13;68.34
63582;BME280;49727;51.078;17.066;2022-12-11T13:10:30;99128.53;;;-1.30;68.12
63582;BME280;49727;51.078;17.066;2022-12-11T13:25:43;99119.66;;;-1.39;68.42
63582;BME280;49727;51.078;17.066;2022-12-11T13:40:45;99117.50;;;-1.45;68.20
63582;BME280;49727;51.078;17.066;2022-12-11T14:10:56;99129.53;;;-1.54;67.87
63582;BME280;49727;51.078;17.066;2022-12-11T14:26:00;99140.56;;;-1.62;67.82
63582;BME280;49727;51.078;17.066;2022-12-11T14:41:11;99120.16;;;-1.68;67.58
63582;BME280;49727;51.078;17.066;2022-12-11T14:56:22;99120.00;;;-1.78;67.48
63582;BME280;49727;51.078;17.066;2022-12-11T15:11:30;99117.28;;;-1.76;67.10
63582;BME280;49727;51.078;17.066;2022-12-11T15:26:33;99126.41;;;-1.82;67.48
63582;BME280;49727;51.078;17.066;2022-12-11T15:41:35;99120.84;;;-1.89;67.49
63582;BME280;49727;51.078;17.066;2022-12-11T15:56:35;99127.25;;;-1.93;67.65
63582;BME280;49727;51.078;17.066;2022-12-11T16:11:36;99133.16;;;-2.02;66.92
63582;BME280;49727;51.078;17.066;2022-12-11T16:26:36;99128.06;;;-2.03;67.40
63582;BME280;49727;51.078;17.066;2022-12-11T16:41:37;99133.50;;;-2.07;67.13
63582;BME280;49727;51.078;17.066;2022-12-11T16:56:38;99113.78;;;-2.11;67.38
63582;BME280;49727;51.078;17.066;2022-12-11T17:11:38;99100.50;;;-2.19;67.54
63582;BME280;49727;51.078;17.066;2022-12-11T17:26:38;99114.03;;;-2.14;67.29
63582;BME280;49727;51.078;17.066;2022-12-11T17:41:39;99105.38;;;-2.03;67.12
63582;BME280;49727;51.078;17.066;2022-12-11T17:56:39;99114.41;;;-2.07;68.05
63582;BME280;49727;51.078;17.066;2022-12-11T18:11:40;99112.34;;;-2.15;68.00
63582;BME280;49727;51.078;17.066;2022-12-11T18:26:40;99127.81;;;-2.12;68.98
63582;BME280;49727;51.078;17.066;2022-12-11T18:41:44;99119.25;;;-2.14;69.05
63582;BME280;49727;51.078;17.066;2022-12-11T18:56:44;99123.28;;;-2.21;70.10
63582;BME280;49727;51.078;17.066;2022-12-11T19:11:45;99109.63;;;-2.25;70.63
63582;BME280;49727;51.078;17.066;2022-12-11T19:26:45;99094.91;;;-2.26;70.66
63582;BME280;49727;51.078;17.066;2022-12-11T19:41:47;99102.84;;;-2.27;70.92
63582;BME280;49727;51.078;17.066;2022-12-11T19:56:47;99104.13;;;-2.33;71.41
63582;BME280;49727;51.078;17.066;2022-12-11T20:11:48;99101.66;;;-2.34;71.87
63582;BME280;49727;51.078;17.066;2022-12-11T20:26:52;99094.31;;;-2.29;72.52
63582;BME280;49727;51.078;17.066;2022-12-11T20:41:52;99107.00;;;-2.25;72.20
63582;BME280;49727;51.078;17.066;2022-12-11T20:56:53;99087.06;;;-2.26;72.54
63582;BME280;49727;51.078;17.066;2022-12-11T21:11:56;99070.34;;;-2.23;73.18
63582;BME280;49727;51.078;17.066;2022-12-11T21:26:57;99080.09;;;-2.25;72.77
63582;BME280;49727;51.078;17.066;2022-12-11T21:41:58;99074.19;;;-2.16;73.46
63582;BME280;49727;51.078;17.066;2022-12-11T21:56:59;99081.16;;;-2.16;73.59
63582;BME280;49727;51.078;17.066;2022-12-11T22:12:00;99080.78;;;-2.23;73.49
63582;BME280;49727;51.078;17.066;2022-12-11T22:27:00;99072.25;;;-2.25;74.05
63582;BME280;49727;51.078;17.066;2022-12-11T22:42:01;99073.22;;;-2.26;73.64
63582;BME280;49727;51.078;17.066;2022-12-11T22:57:01;99072.97;;;-2.23;74.72
63582;BME280;49727;51.078;17.066;2022-12-11T23:12:02;99064.44;;;-2.25;74.27
63582;BME280;49727;51.078;17.066;2022-12-11T23:27:02;99062.31;;;-2.20;74.54
63582;BME280;49727;51.078;17.066;2022-12-11T23:42:03;99052.34;;;-2.15;74.89
63582;BME280;49727;51.078;17.066;2022-12-11T23:57:03;99064.44;;;-2.14;74.88
